createdAt,value
2017-08-20T00:00:12.911Z,0
2017-08-20T00:01:14.317Z,0
2017-08-20T00:02:15.721Z,0
2017-08-20T00:03:17.233Z,0
2017-08-20T00:04:18.634Z,0
2017-08-20T00:05:20.318Z,0
2017-08-20T00:06:21.720Z,0
2017-08-20T00:07:23.403Z,0
2017-08-20T00:08:24.811Z,0
2017-08-20T00:09:26.219Z,0
2017-08-20T00:10:27.929Z,0
2017-08-20T00:11:29.330Z,0
2017-08-20T00:12:30.769Z,0
2017-08-20T00:13:32.455Z,0
2017-08-20T00:14:33.858Z,0
2017-08-20T00:15:35.541Z,0
2017-08-20T00:16:36.947Z,0
2017-08-20T00:17:38.625Z,0
2017-08-20T00:18:40.025Z,0
2017-08-20T00:19:41.711Z,0
2017-08-20T00:20:43.117Z,0
2017-08-20T00:21:44.822Z,0
2017-08-20T00:22:46.228Z,0
2017-08-20T00:23:47.881Z,0
2017-08-20T00:24:49.296Z,0
2017-08-20T00:25:50.968Z,0
2017-08-20T00:26:52.371Z,0
2017-08-20T00:27:54.053Z,0
2017-08-20T00:28:55.460Z,0
2017-08-20T00:29:56.865Z,0
2017-08-20T00:30:58.373Z,0
2017-08-20T00:31:59.773Z,0
2017-08-20T00:33:01.187Z,0
2017-08-20T00:34:02.695Z,0
2017-08-20T00:35:04.105Z,0
2017-08-20T00:36:05.781Z,0
2017-08-20T00:37:07.185Z,0
2017-08-20T00:38:08.591Z,0
2017-08-20T00:39:10.102Z,0
2017-08-20T00:40:11.502Z,0
2017-08-20T00:41:12.905Z,0
2017-08-20T00:42:14.422Z,0
2017-08-20T00:43:15.826Z,0
2017-08-20T00:44:17.228Z,0
2017-08-20T00:45:18.744Z,0
2017-08-20T00:46:20.147Z,0
2017-08-20T00:47:21.828Z,0
2017-08-20T00:48:23.253Z,0
2017-08-20T00:49:24.672Z,0
2017-08-20T00:50:26.355Z,0
2017-08-20T00:51:27.759Z,0
2017-08-20T00:52:29.204Z,0
2017-08-20T00:53:30.881Z,0
2017-08-20T00:54:32.282Z,0
2017-08-20T00:55:33.965Z,0
2017-08-20T00:56:35.389Z,0
2017-08-20T00:57:37.070Z,0
2017-08-20T00:58:38.472Z,0
2017-08-20T00:59:40.138Z,0
2017-08-20T01:00:41.565Z,0
2017-08-20T01:01:43.223Z,0
2017-08-20T01:02:44.630Z,0
2017-08-20T01:03:46.029Z,0
2017-08-20T01:04:47.562Z,0
2017-08-20T01:05:48.965Z,0
2017-08-20T01:06:50.374Z,0
2017-08-20T01:07:52.070Z,0
2017-08-20T01:08:53.472Z,0
2017-08-20T01:09:54.894Z,0
2017-08-20T01:10:56.390Z,0
2017-08-20T01:11:57.796Z,0
2017-08-20T01:12:59.200Z,0
2017-08-20T01:14:00.711Z,0
2017-08-20T01:15:02.117Z,0
2017-08-20T01:16:03.796Z,0
2017-08-20T01:17:05.198Z,0
2017-08-20T01:18:06.881Z,0
2017-08-20T01:19:08.285Z,0
2017-08-20T01:20:09.689Z,0
2017-08-20T01:21:11.204Z,0
2017-08-20T01:22:12.607Z,0
2017-08-20T01:23:14.009Z,0
2017-08-20T01:24:15.452Z,0
2017-08-20T01:25:16.856Z,0
2017-08-20T01:26:18.259Z,0
2017-08-20T01:27:19.844Z,0
2017-08-20T01:28:21.249Z,0
2017-08-20T01:29:22.656Z,0
2017-08-20T01:30:24.165Z,0
2017-08-20T01:31:25.567Z,0
2017-08-20T01:32:27.251Z,0
2017-08-20T01:33:28.655Z,0
2017-08-20T01:34:30.336Z,0
2017-08-20T01:35:31.739Z,0
2017-08-20T01:36:33.422Z,0
2017-08-20T01:37:34.826Z,0
2017-08-20T01:38:36.514Z,0
2017-08-20T01:39:37.919Z,0
2017-08-20T01:40:39.329Z,0
2017-08-20T01:41:40.830Z,0
2017-08-20T01:42:42.236Z,0
2017-08-20T01:43:43.643Z,0
2017-08-20T01:44:45.149Z,0
2017-08-20T01:45:46.552Z,0
2017-08-20T01:46:47.955Z,0
2017-08-20T01:47:49.471Z,0
2017-08-20T01:48:50.876Z,0
2017-08-20T01:49:52.287Z,0
2017-08-20T01:50:53.823Z,0
2017-08-20T01:51:55.226Z,0
2017-08-20T01:52:56.628Z,0
2017-08-20T01:53:58.112Z,0
2017-08-20T01:54:59.517Z,0
2017-08-20T01:56:01.154Z,0
2017-08-20T01:57:02.574Z,0
2017-08-20T01:58:04.011Z,0
2017-08-20T01:59:05.414Z,0
2017-08-20T02:00:06.964Z,0
2017-08-20T02:01:08.367Z,0
2017-08-20T02:02:10.044Z,0
2017-08-20T02:03:11.451Z,0
2017-08-20T02:04:13.066Z,0
2017-08-20T02:05:14.471Z,0
2017-08-20T02:06:15.880Z,0
2017-08-20T02:07:17.452Z,0
2017-08-20T02:08:18.855Z,0
2017-08-20T02:09:20.287Z,0
2017-08-20T02:10:21.771Z,0
2017-08-20T02:11:23.177Z,0
2017-08-20T02:12:24.582Z,0
2017-08-20T02:13:26.098Z,0
2017-08-20T02:14:27.502Z,0
2017-08-20T02:15:28.905Z,0
2017-08-20T02:16:30.419Z,0
2017-08-20T02:17:31.834Z,0
2017-08-20T02:18:33.499Z,0
2017-08-20T02:19:34.903Z,0
2017-08-20T02:20:36.327Z,0
2017-08-20T02:21:37.820Z,0
2017-08-20T02:22:39.233Z,0
2017-08-20T02:23:40.677Z,0
2017-08-20T02:24:42.346Z,0
2017-08-20T02:25:43.751Z,0
2017-08-20T02:26:45.160Z,0
2017-08-20T02:27:46.667Z,0
2017-08-20T02:28:48.068Z,0
2017-08-20T02:29:49.476Z,0
2017-08-20T02:30:50.989Z,0
2017-08-20T02:31:52.469Z,0
2017-08-20T02:32:54.073Z,0
2017-08-20T02:33:55.485Z,0
2017-08-20T02:34:56.889Z,0
2017-08-20T02:35:58.598Z,0
2017-08-20T02:36:59.998Z,0
2017-08-20T02:38:01.403Z,0
2017-08-20T02:39:02.919Z,0
2017-08-20T02:40:04.326Z,0
2017-08-20T02:41:05.804Z,0
2017-08-20T02:42:07.204Z,0
2017-08-20T02:43:08.706Z,0
2017-08-20T02:44:10.162Z,0
2017-08-20T02:45:11.709Z,0
2017-08-20T02:46:13.118Z,0
2017-08-20T02:47:14.651Z,0
2017-08-20T02:48:16.053Z,0
2017-08-20T02:49:17.454Z,0
2017-08-20T02:50:18.974Z,0
2017-08-20T02:51:20.386Z,0
2017-08-20T02:52:21.793Z,0
2017-08-20T02:53:23.291Z,0
2017-08-20T02:54:24.710Z,0
2017-08-20T02:55:26.117Z,0
2017-08-20T02:56:27.635Z,0
2017-08-20T02:57:29.050Z,0
2017-08-20T02:58:30.704Z,0
2017-08-20T02:59:32.108Z,0
2017-08-20T03:00:33.784Z,0
2017-08-20T03:01:35.193Z,0
2017-08-20T03:02:36.879Z,0
2017-08-20T03:03:38.273Z,0
2017-08-20T03:04:39.956Z,0
2017-08-20T03:05:41.363Z,0
2017-08-20T03:06:42.766Z,0
2017-08-20T03:07:44.279Z,0
2017-08-20T03:08:45.737Z,0
2017-08-20T03:09:47.141Z,0
2017-08-20T03:10:48.750Z,0
2017-08-20T03:11:50.152Z,0
2017-08-20T03:12:51.556Z,0
2017-08-20T03:13:53.129Z,0
2017-08-20T03:14:54.533Z,0
2017-08-20T03:15:55.977Z,0
2017-08-20T03:16:57.647Z,0
2017-08-20T03:17:59.459Z,0
2017-08-20T03:19:00.937Z,0
2017-08-20T03:20:02.348Z,0
2017-08-20T03:21:03.754Z,0
2017-08-20T03:22:05.258Z,0
2017-08-20T03:23:06.665Z,0
2017-08-20T03:24:08.069Z,0
2017-08-20T03:25:09.580Z,0
2017-08-20T03:26:10.985Z,0
2017-08-20T03:27:12.389Z,0
2017-08-20T03:28:13.899Z,0
2017-08-20T03:29:15.308Z,0
2017-08-20T03:30:16.714Z,0
2017-08-20T03:31:18.226Z,0
2017-08-20T03:32:19.629Z,0
2017-08-20T03:33:21.102Z,0
2017-08-20T03:34:22.512Z,0
2017-08-20T03:35:23.982Z,0
2017-08-20T03:36:25.389Z,0
2017-08-20T03:37:26.864Z,0
2017-08-20T03:38:28.282Z,0
2017-08-20T03:39:29.745Z,0
2017-08-20T03:40:31.147Z,0
2017-08-20T03:41:32.644Z,0
2017-08-20T03:42:34.050Z,0
2017-08-20T03:43:35.709Z,0
2017-08-20T03:44:37.117Z,0
2017-08-20T03:45:38.590Z,0
2017-08-20T03:46:39.991Z,0
2017-08-20T03:47:41.395Z,0
2017-08-20T03:48:42.909Z,0
2017-08-20T03:49:44.315Z,0
2017-08-20T03:50:45.718Z,0
2017-08-20T03:51:47.232Z,0
2017-08-20T03:52:48.638Z,0
2017-08-20T03:53:50.040Z,0
2017-08-20T03:54:51.555Z,0
2017-08-20T03:55:52.989Z,0
2017-08-20T03:56:54.396Z,0
2017-08-20T03:57:55.879Z,0
2017-08-20T03:58:57.284Z,0
2017-08-20T03:59:58.757Z,4
2017-08-20T04:01:00.161Z,4
2017-08-20T04:02:01.636Z,4
2017-08-20T04:03:03.043Z,0
2017-08-20T04:04:04.519Z,4
2017-08-20T04:05:05.925Z,4
2017-08-20T04:06:07.327Z,4
2017-08-20T04:07:08.842Z,4
2017-08-20T04:08:10.243Z,4
2017-08-20T04:09:11.646Z,8
2017-08-20T04:10:13.156Z,8
2017-08-20T04:11:14.563Z,12
2017-08-20T04:12:15.967Z,12
2017-08-20T04:13:17.481Z,12
2017-08-20T04:14:18.892Z,16
2017-08-20T04:15:20.292Z,12
2017-08-20T04:16:21.764Z,16
2017-08-20T04:17:23.174Z,20
2017-08-20T04:18:24.683Z,20
2017-08-20T04:19:26.090Z,24
2017-08-20T04:20:27.563Z,28
2017-08-20T04:21:28.970Z,28
2017-08-20T04:22:30.443Z,32
2017-08-20T04:23:31.845Z,32
2017-08-20T04:24:33.331Z,36
2017-08-20T04:25:34.771Z,44
2017-08-20T04:26:36.179Z,44
2017-08-20T04:27:37.626Z,52
2017-08-20T04:28:39.032Z,56
2017-08-20T04:29:40.451Z,60
2017-08-20T04:30:41.976Z,64
2017-08-20T04:31:43.408Z,68
2017-08-20T04:32:44.817Z,72
2017-08-20T04:33:46.291Z,76
2017-08-20T04:34:47.735Z,88
2017-08-20T04:35:49.142Z,100
2017-08-20T04:36:50.610Z,108
2017-08-20T04:37:52.024Z,120
2017-08-20T04:38:53.434Z,128
2017-08-20T04:39:54.930Z,136
2017-08-20T04:40:56.338Z,136
2017-08-20T04:41:57.749Z,148
2017-08-20T04:42:59.251Z,160
2017-08-20T04:44:00.655Z,172
2017-08-20T04:45:02.063Z,180
2017-08-20T04:46:03.572Z,192
2017-08-20T04:47:04.978Z,196
2017-08-20T04:48:06.389Z,200
2017-08-20T04:49:07.893Z,208
2017-08-20T04:50:09.304Z,216
2017-08-20T04:51:10.709Z,232
2017-08-20T04:52:12.214Z,252
2017-08-20T04:53:13.618Z,252
2017-08-20T04:54:15.306Z,248
2017-08-20T04:55:16.716Z,256
2017-08-20T04:56:18.181Z,284
2017-08-20T04:57:19.590Z,308
2017-08-20T04:58:20.996Z,320
2017-08-20T04:59:22.503Z,336
2017-08-20T05:00:23.911Z,344
2017-08-20T05:01:25.320Z,380
2017-08-20T05:02:26.822Z,404
2017-08-20T05:03:28.232Z,388
2017-08-20T05:04:29.703Z,328
2017-08-20T05:05:31.112Z,280
2017-08-20T05:06:32.585Z,252
2017-08-20T05:07:33.992Z,212
2017-08-20T05:08:35.484Z,204
2017-08-20T05:09:36.890Z,216
2017-08-20T05:10:38.456Z,264
2017-08-20T05:11:39.864Z,308
2017-08-20T05:12:41.272Z,340
2017-08-20T05:13:42.880Z,372
2017-08-20T05:14:44.289Z,472
2017-08-20T05:15:45.695Z,584
2017-08-20T05:16:47.191Z,648
2017-08-20T05:17:48.603Z,688
2017-08-20T05:18:50.072Z,720
2017-08-20T05:19:51.490Z,688
2017-08-20T05:20:52.990Z,684
2017-08-20T05:21:54.382Z,656
2017-08-20T05:22:55.832Z,612
2017-08-20T05:23:57.243Z,580
2017-08-20T05:24:58.714Z,556
2017-08-20T05:26:00.125Z,572
2017-08-20T05:27:01.594Z,636
2017-08-20T05:28:03.002Z,700
2017-08-20T05:29:04.475Z,716
2017-08-20T05:30:05.911Z,716
2017-08-20T05:31:07.357Z,712
2017-08-20T05:32:08.774Z,716
2017-08-20T05:33:10.237Z,708
2017-08-20T05:34:11.646Z,728
2017-08-20T05:35:13.117Z,712
2017-08-20T05:36:14.526Z,660
2017-08-20T05:37:15.932Z,584
2017-08-20T05:38:17.437Z,596
2017-08-20T05:39:18.849Z,644
2017-08-20T05:40:20.260Z,720
2017-08-20T05:41:21.759Z,756
2017-08-20T05:42:23.168Z,732
2017-08-20T05:43:24.573Z,628
2017-08-20T05:44:26.112Z,536
2017-08-20T05:45:27.825Z,516
2017-08-20T05:46:29.238Z,524
2017-08-20T05:47:30.843Z,508
2017-08-20T05:48:32.248Z,528
2017-08-20T05:49:33.693Z,532
2017-08-20T05:50:35.098Z,532
2017-08-20T05:51:36.512Z,572
2017-08-20T05:52:38.013Z,688
2017-08-20T05:53:39.433Z,784
2017-08-20T05:54:40.841Z,812
2017-08-20T05:55:42.335Z,744
2017-08-20T05:56:43.738Z,700
2017-08-20T05:57:45.145Z,704
2017-08-20T05:58:46.656Z,708
2017-08-20T05:59:48.064Z,664
2017-08-20T06:00:49.536Z,676
2017-08-20T06:01:50.948Z,660
2017-08-20T06:02:52.416Z,676
2017-08-20T06:03:53.822Z,644
2017-08-20T06:04:55.296Z,552
2017-08-20T06:05:56.704Z,468
2017-08-20T06:06:58.177Z,388
2017-08-20T06:07:59.587Z,388
2017-08-20T06:09:00.995Z,380
2017-08-20T06:10:02.500Z,404
2017-08-20T06:11:03.905Z,456
2017-08-20T06:12:05.311Z,532
2017-08-20T06:13:06.819Z,612
2017-08-20T06:14:08.236Z,612
2017-08-20T06:15:09.698Z,636
2017-08-20T06:16:11.109Z,660
2017-08-20T06:17:12.582Z,668
2017-08-20T06:18:13.992Z,704
2017-08-20T06:19:15.469Z,684
2017-08-20T06:20:16.882Z,732
2017-08-20T06:21:18.343Z,808
2017-08-20T06:22:19.753Z,852
2017-08-20T06:23:21.221Z,916
2017-08-20T06:24:22.629Z,884
2017-08-20T06:25:24.103Z,976
2017-08-20T06:26:25.512Z,1024
2017-08-20T06:27:26.921Z,1044
2017-08-20T06:28:28.424Z,1056
2017-08-20T06:29:30.213Z,1116
2017-08-20T06:30:31.623Z,1148
2017-08-20T06:31:33.054Z,1224
2017-08-20T06:32:34.458Z,1552
2017-08-20T06:33:35.872Z,1580
2017-08-20T06:34:37.376Z,1604
2017-08-20T06:35:38.784Z,1780
2017-08-20T06:36:40.197Z,1816
2017-08-20T06:37:41.699Z,1848
2017-08-20T06:38:43.107Z,1800
2017-08-20T06:39:44.516Z,1868
2017-08-20T06:40:46.019Z,1968
2017-08-20T06:41:47.428Z,1920
2017-08-20T06:42:48.849Z,1844
2017-08-20T06:43:50.337Z,1648
2017-08-20T06:44:51.761Z,1612
2017-08-20T06:45:53.168Z,1676
2017-08-20T06:46:54.667Z,1844
2017-08-20T06:47:56.069Z,1856
2017-08-20T06:48:57.492Z,1572
2017-08-20T06:49:58.979Z,1392
2017-08-20T06:51:00.396Z,1328
2017-08-20T06:52:01.813Z,1252
2017-08-20T06:53:03.300Z,1236
2017-08-20T06:54:04.712Z,1092
2017-08-20T06:55:06.527Z,1160
2017-08-20T06:56:08.049Z,1264
2017-08-20T06:57:09.438Z,1312
2017-08-20T06:58:10.848Z,1300
2017-08-20T06:59:12.264Z,1344
2017-08-20T07:00:13.674Z,1636
2017-08-20T07:01:15.083Z,1876
2017-08-20T07:02:16.491Z,1992
2017-08-20T07:03:17.908Z,1892
2017-08-20T07:04:19.316Z,1864
2017-08-20T07:05:20.732Z,1888
2017-08-20T07:06:22.146Z,1932
2017-08-20T07:07:23.561Z,1828
2017-08-20T07:08:24.966Z,1780
2017-08-20T07:09:26.380Z,1712
2017-08-20T07:10:27.841Z,1908
2017-08-20T07:11:29.254Z,2144
2017-08-20T07:12:30.669Z,2444
2017-08-20T07:13:32.087Z,2996
2017-08-20T07:14:33.497Z,3332
2017-08-20T07:15:34.909Z,3736
2017-08-20T07:16:36.317Z,3896
2017-08-20T07:17:37.732Z,3748
2017-08-20T07:18:39.142Z,3620
2017-08-20T07:19:40.559Z,3520
2017-08-20T07:20:41.977Z,3404
2017-08-20T07:21:43.400Z,2844
2017-08-20T07:22:44.808Z,2480
2017-08-20T07:23:46.217Z,2448
2017-08-20T07:24:47.637Z,2452
2017-08-20T07:25:49.043Z,2324
2017-08-20T07:26:50.455Z,2368
2017-08-20T07:27:51.869Z,2704
2017-08-20T07:28:53.282Z,2732
2017-08-20T07:29:54.694Z,3096
2017-08-20T07:30:56.103Z,3152
2017-08-20T07:31:57.518Z,3052
2017-08-20T07:32:58.926Z,2480
2017-08-20T07:34:00.343Z,2720
2017-08-20T07:35:01.766Z,2664
2017-08-20T07:36:03.169Z,2620
2017-08-20T07:37:04.578Z,2772
2017-08-20T07:38:05.999Z,3288
2017-08-20T07:39:07.401Z,2828
2017-08-20T07:40:08.821Z,2516
2017-08-20T07:41:10.234Z,3128
2017-08-20T07:42:11.652Z,3112
2017-08-20T07:43:13.059Z,2800
2017-08-20T07:44:15.472Z,2924
2017-08-20T07:45:16.881Z,3028
2017-08-20T07:46:18.310Z,3320
2017-08-20T07:47:19.722Z,2488
2017-08-20T07:48:21.134Z,3448
2017-08-20T07:49:22.549Z,3356
2017-08-20T07:50:23.960Z,2800
2017-08-20T07:51:25.379Z,3688
2017-08-20T07:52:26.788Z,3232
2017-08-20T07:53:28.216Z,3256
2017-08-20T07:54:29.630Z,2912
2017-08-20T07:55:31.040Z,3584
2017-08-20T07:56:32.458Z,2900
2017-08-20T07:57:33.878Z,3296
2017-08-20T07:58:35.290Z,3624
2017-08-20T07:59:36.698Z,3548
2017-08-20T08:00:38.109Z,3292
2017-08-20T08:01:39.523Z,3584
2017-08-20T08:02:40.942Z,4536
2017-08-20T08:03:42.353Z,3856
2017-08-20T08:04:43.765Z,3716
2017-08-20T08:05:45.171Z,4528
2017-08-20T08:06:46.982Z,3324
2017-08-20T08:07:48.398Z,5136
2017-08-20T08:08:49.804Z,2864
2017-08-20T08:09:51.222Z,3148
2017-08-20T08:10:52.634Z,4100
2017-08-20T08:11:54.046Z,3988
2017-08-20T08:12:55.471Z,4372
2017-08-20T08:13:56.882Z,3888
2017-08-20T08:14:58.296Z,2952
2017-08-20T08:15:59.707Z,3396
2017-08-20T08:17:01.120Z,3760
2017-08-20T08:18:02.530Z,3872
2017-08-20T08:19:03.944Z,3944
2017-08-20T08:20:05.350Z,3348
2017-08-20T08:21:06.797Z,3688
2017-08-20T08:22:08.207Z,3768
2017-08-20T08:23:09.625Z,4064
2017-08-20T08:24:11.035Z,3952
2017-08-20T08:25:12.452Z,3972
2017-08-20T08:26:13.861Z,4476
2017-08-20T08:27:15.274Z,7072
2017-08-20T08:28:16.683Z,8168
2017-08-20T08:29:18.094Z,6500
2017-08-20T08:30:19.510Z,4748
2017-08-20T08:31:20.921Z,4600
2017-08-20T08:32:22.333Z,4028
2017-08-20T08:33:23.751Z,6240
2017-08-20T08:34:25.183Z,3676
2017-08-20T08:35:26.593Z,5360
2017-08-20T08:36:28.010Z,5776
2017-08-20T08:37:29.423Z,11884
2017-08-20T08:38:30.833Z,2048
2017-08-20T08:39:32.251Z,4192
2017-08-20T08:40:33.661Z,25280
2017-08-20T08:41:35.068Z,3724
2017-08-20T08:42:36.490Z,1692
2017-08-20T08:43:37.925Z,2584
2017-08-20T08:44:39.361Z,2220
2017-08-20T08:45:40.777Z,2632
2017-08-20T08:46:42.189Z,2504
2017-08-20T08:47:43.607Z,3436
2017-08-20T08:48:45.007Z,6668
2017-08-20T08:49:46.416Z,6892
2017-08-20T08:50:47.835Z,6996
2017-08-20T08:51:49.240Z,3796
2017-08-20T08:52:50.647Z,9764
2017-08-20T08:53:52.081Z,6180
2017-08-20T08:54:53.503Z,9620
2017-08-20T08:55:54.909Z,7524
2017-08-20T08:56:56.323Z,7584
2017-08-20T08:57:57.733Z,6312
2017-08-20T08:58:59.143Z,1988
2017-08-20T09:00:00.559Z,3204
2017-08-20T09:01:01.975Z,8648
2017-08-20T09:02:03.381Z,2868
2017-08-20T09:03:04.800Z,3484
2017-08-20T09:04:06.203Z,4252
2017-08-20T09:05:07.615Z,5640
2017-08-20T09:06:09.030Z,4308
2017-08-20T09:07:10.441Z,8360
2017-08-20T09:08:11.877Z,8272
2017-08-20T09:09:13.284Z,6680
2017-08-20T09:10:14.691Z,9780
2017-08-20T09:11:16.102Z,12060
2017-08-20T09:12:17.520Z,9060
2017-08-20T09:13:18.927Z,8372
2017-08-20T09:14:20.338Z,8288
2017-08-20T09:15:21.753Z,6796
2017-08-20T09:16:23.177Z,9548
2017-08-20T09:17:24.595Z,8148
2017-08-20T09:18:26.005Z,11684
2017-08-20T09:19:27.422Z,7812
2017-08-20T09:20:28.832Z,6928
2017-08-20T09:21:30.244Z,5196
2017-08-20T09:22:31.683Z,5752
2017-08-20T09:23:33.067Z,5772
2017-08-20T09:24:34.477Z,6052
2017-08-20T09:25:35.911Z,6400
2017-08-20T09:26:37.317Z,6496
2017-08-20T09:27:38.734Z,7280
2017-08-20T09:28:40.148Z,6748
2017-08-20T09:29:41.568Z,8460
2017-08-20T09:30:42.992Z,3836
2017-08-20T09:31:44.406Z,2760
2017-08-20T09:32:45.816Z,2452
2017-08-20T09:33:47.232Z,2280
2017-08-20T09:34:48.645Z,1860
2017-08-20T09:35:50.063Z,1848
2017-08-20T09:36:51.477Z,1724
2017-08-20T09:37:52.886Z,1596
2017-08-20T09:38:54.324Z,1360
2017-08-20T09:39:55.737Z,1504
2017-08-20T09:40:57.192Z,1864
2017-08-20T09:41:58.613Z,1632
2017-08-20T09:43:00.023Z,1692
2017-08-20T09:44:01.440Z,2408
2017-08-20T09:45:02.853Z,2872
2017-08-20T09:46:04.255Z,2916
2017-08-20T09:47:05.673Z,3048
2017-08-20T09:48:07.086Z,2500
2017-08-20T09:49:08.489Z,1328
2017-08-20T09:50:09.910Z,2036
2017-08-20T09:51:11.331Z,2520
2017-08-20T09:52:12.740Z,2376
2017-08-20T09:53:14.157Z,1836
2017-08-20T09:54:15.941Z,1772
2017-08-20T09:55:17.358Z,1368
2017-08-20T09:56:18.775Z,2012
2017-08-20T09:57:20.184Z,2200
2017-08-20T09:58:21.625Z,2436
2017-08-20T09:59:23.038Z,2528
2017-08-20T10:00:24.444Z,2440
2017-08-20T10:01:25.855Z,2920
2017-08-20T10:02:27.320Z,3104
2017-08-20T10:03:28.712Z,3060
2017-08-20T10:04:30.126Z,3360
2017-08-20T10:05:31.626Z,4068
2017-08-20T10:06:33.032Z,4968
2017-08-20T10:07:34.509Z,5688
2017-08-20T10:08:35.920Z,6932
2017-08-20T10:09:37.387Z,7804
2017-08-20T10:10:39.186Z,7336
2017-08-20T10:11:40.598Z,7948
2017-08-20T10:12:42.131Z,9160
2017-08-20T10:13:43.544Z,16608
2017-08-20T10:14:45.337Z,11544
2017-08-20T10:15:46.849Z,11388
2017-08-20T10:16:48.260Z,11024
2017-08-20T10:17:49.728Z,8800
2017-08-20T10:18:51.475Z,10500
2017-08-20T10:19:52.919Z,30144
2017-08-20T10:20:54.327Z,51936
2017-08-20T10:21:55.738Z,65184
2017-08-20T10:22:57.240Z,41216
2017-08-20T10:23:58.653Z,48896
2017-08-20T10:25:00.070Z,57728
2017-08-20T10:26:01.561Z,34848
2017-08-20T10:27:02.975Z,17856
2017-08-20T10:28:04.385Z,4796
2017-08-20T10:29:05.881Z,4236
2017-08-20T10:30:07.292Z,4376
2017-08-20T10:31:08.703Z,4740
2017-08-20T10:32:10.203Z,5544
2017-08-20T10:33:11.619Z,5728
2017-08-20T10:34:13.086Z,5356
2017-08-20T10:35:14.494Z,19168
2017-08-20T10:36:15.903Z,28544
2017-08-20T10:37:17.394Z,41632
2017-08-20T10:38:18.824Z,64672
2017-08-20T10:39:20.237Z,66016
2017-08-20T10:40:21.733Z,40896
2017-08-20T10:41:23.146Z,26176
2017-08-20T10:42:24.606Z,34464
2017-08-20T10:43:27.814Z,68576
2017-08-20T10:44:29.234Z,82048
2017-08-20T10:45:30.647Z,84352
2017-08-20T10:46:32.066Z,69216
2017-08-20T10:47:33.486Z,9640
2017-08-20T10:48:34.906Z,38272
2017-08-20T10:49:36.320Z,31232
2017-08-20T10:50:37.732Z,41440
2017-08-20T10:51:39.543Z,4192
2017-08-20T10:52:40.955Z,3136
2017-08-20T10:53:42.411Z,2624
2017-08-20T10:54:43.824Z,1940
2017-08-20T10:55:45.238Z,1424
2017-08-20T10:56:46.654Z,1284
2017-08-20T10:57:48.066Z,1228
2017-08-20T10:58:49.479Z,1152
2017-08-20T10:59:50.917Z,1060
2017-08-20T11:00:52.329Z,952
2017-08-20T11:01:53.740Z,1620
2017-08-20T11:02:55.162Z,2412
2017-08-20T11:03:56.595Z,3104
2017-08-20T11:04:58.001Z,4108
2017-08-20T11:05:59.418Z,6240
2017-08-20T11:07:00.832Z,9176
2017-08-20T11:08:02.252Z,16664
2017-08-20T11:09:03.669Z,87104
2017-08-20T11:10:05.086Z,84192
2017-08-20T11:11:06.502Z,81664
2017-08-20T11:12:07.918Z,87488
2017-08-20T11:13:09.331Z,87136
2017-08-20T11:14:10.751Z,82848
2017-08-20T11:15:12.172Z,86720
2017-08-20T11:16:13.594Z,12304
2017-08-20T11:17:15.009Z,81760
2017-08-20T11:18:16.428Z,88832
2017-08-20T11:19:17.845Z,84800
2017-08-20T11:20:19.265Z,88096
2017-08-20T11:21:20.683Z,89536
2017-08-20T11:22:22.100Z,19232
2017-08-20T11:23:23.520Z,31424
2017-08-20T11:24:24.937Z,10760
2017-08-20T11:25:26.351Z,58272
2017-08-20T11:26:27.773Z,87584
2017-08-20T11:27:29.190Z,90880
2017-08-20T11:28:30.606Z,19968
2017-08-20T11:29:32.027Z,6136
2017-08-20T11:30:33.450Z,81440
2017-08-20T11:31:34.867Z,77184
2017-08-20T11:32:36.286Z,76288
2017-08-20T11:33:37.706Z,68640
2017-08-20T11:34:39.154Z,59616
2017-08-20T11:35:40.575Z,41600
2017-08-20T11:36:41.991Z,21568
2017-08-20T11:37:43.419Z,14688
2017-08-20T11:38:44.836Z,18560
2017-08-20T11:39:46.252Z,25984
2017-08-20T11:40:47.678Z,28256
2017-08-20T11:41:49.095Z,26176
2017-08-20T11:42:50.513Z,22976
2017-08-20T11:43:51.968Z,23328
2017-08-20T11:44:53.389Z,22944
2017-08-20T11:45:54.812Z,21088
2017-08-20T11:46:56.230Z,20992
2017-08-20T11:47:57.659Z,21536
2017-08-20T11:48:59.074Z,19840
2017-08-20T11:50:00.498Z,15040
2017-08-20T11:51:01.920Z,12944
2017-08-20T11:52:03.364Z,12496
2017-08-20T11:53:05.200Z,11968
2017-08-20T11:54:06.621Z,14752
2017-08-20T11:55:08.040Z,12508
2017-08-20T11:56:09.462Z,8900
2017-08-20T11:57:10.878Z,6916
2017-08-20T11:58:12.291Z,6604
2017-08-20T11:59:13.718Z,12844
2017-08-20T12:00:15.140Z,8580
2017-08-20T12:01:16.550Z,9356
2017-08-20T12:02:17.973Z,9832
2017-08-20T12:03:19.388Z,9664
2017-08-20T12:04:20.805Z,9608
2017-08-20T12:05:22.231Z,9520
2017-08-20T12:06:23.654Z,10200
2017-08-20T12:07:25.064Z,12396
2017-08-20T12:08:26.524Z,14744
2017-08-20T12:09:27.940Z,12240
2017-08-20T12:10:29.353Z,6308
2017-08-20T12:11:30.780Z,12456
2017-08-20T12:12:32.212Z,7272
2017-08-20T12:13:33.634Z,5672
2017-08-20T12:14:35.059Z,5008
2017-08-20T12:15:36.528Z,4652
2017-08-20T12:16:37.945Z,4180
2017-08-20T12:17:39.378Z,3500
2017-08-20T12:18:40.793Z,3044
2017-08-20T12:19:42.213Z,2900
2017-08-20T12:20:44.017Z,3616
2017-08-20T12:21:45.432Z,5452
2017-08-20T12:22:46.844Z,4964
2017-08-20T12:23:48.259Z,3724
2017-08-20T12:24:49.675Z,2152
2017-08-20T12:25:51.089Z,2132
2017-08-20T12:26:52.540Z,2140
2017-08-20T12:27:53.954Z,1876
2017-08-20T12:28:55.358Z,1504
2017-08-20T12:29:56.779Z,1348
2017-08-20T12:30:58.189Z,1204
2017-08-20T12:31:59.601Z,1052
2017-08-20T12:33:01.017Z,912
2017-08-20T12:34:02.432Z,792
2017-08-20T12:35:03.878Z,712
2017-08-20T12:36:05.290Z,592
2017-08-20T12:37:06.705Z,416
2017-08-20T12:38:08.196Z,688
2017-08-20T12:39:09.616Z,980
2017-08-20T12:40:11.022Z,1260
2017-08-20T12:41:12.438Z,1332
2017-08-20T12:42:13.854Z,1260
2017-08-20T12:43:15.656Z,1248
2017-08-20T12:44:17.071Z,1308
2017-08-20T12:45:18.492Z,1456
2017-08-20T12:46:19.925Z,1756
2017-08-20T12:47:21.347Z,2068
2017-08-20T12:48:22.757Z,2528
2017-08-20T12:49:24.169Z,3032
2017-08-20T12:50:25.588Z,3672
2017-08-20T12:51:26.997Z,3844
2017-08-20T12:52:28.438Z,4580
2017-08-20T12:53:29.854Z,5260
2017-08-20T12:54:31.264Z,4956
2017-08-20T12:55:32.686Z,4820
2017-08-20T12:56:34.103Z,4636
2017-08-20T12:57:35.532Z,4236
2017-08-20T12:58:36.949Z,3844
2017-08-20T12:59:38.348Z,3404
2017-08-20T13:00:39.763Z,3084
2017-08-20T13:01:41.174Z,2856
2017-08-20T13:02:42.585Z,2776
2017-08-20T13:03:44.003Z,2864
2017-08-20T13:04:45.417Z,2776
2017-08-20T13:05:46.857Z,2500
2017-08-20T13:06:48.267Z,2268
2017-08-20T13:07:49.678Z,2000
2017-08-20T13:08:51.091Z,1860
2017-08-20T13:09:52.514Z,1804
2017-08-20T13:10:53.928Z,1784
2017-08-20T13:11:58.436Z,1996
2017-08-20T13:12:59.845Z,2468
2017-08-20T13:14:01.358Z,3092
2017-08-20T13:15:02.771Z,3328
2017-08-20T13:16:04.251Z,3336
2017-08-20T13:17:05.669Z,3592
2017-08-20T13:18:07.118Z,3648
2017-08-20T13:19:08.532Z,4548
2017-08-20T13:20:10.036Z,4904
2017-08-20T13:21:11.443Z,5844
2017-08-20T13:22:12.880Z,6028
2017-08-20T13:23:14.305Z,6804
2017-08-20T13:24:15.763Z,6244
2017-08-20T13:25:17.170Z,6020
2017-08-20T13:26:18.640Z,5524
2017-08-20T13:27:20.051Z,5204
2017-08-20T13:28:21.522Z,5080
2017-08-20T13:29:22.932Z,4700
2017-08-20T13:30:24.402Z,3980
2017-08-20T13:31:25.814Z,2884
2017-08-20T13:32:27.298Z,2332
2017-08-20T13:33:28.711Z,2160
2017-08-20T13:34:30.173Z,2696
2017-08-20T13:35:31.582Z,2692
2017-08-20T13:36:33.042Z,2784
2017-08-20T13:37:34.457Z,2840
2017-08-20T13:38:35.870Z,2904
2017-08-20T13:39:37.365Z,3168
2017-08-20T13:40:38.774Z,3772
2017-08-20T13:41:40.183Z,4200
2017-08-20T13:42:41.687Z,4748
2017-08-20T13:43:43.096Z,4804
2017-08-20T13:44:44.506Z,4420
2017-08-20T13:45:46.008Z,3944
2017-08-20T13:46:47.434Z,3684
2017-08-20T13:47:48.830Z,3548
2017-08-20T13:48:50.328Z,4096
2017-08-20T13:49:51.737Z,3964
2017-08-20T13:50:53.209Z,3508
2017-08-20T13:51:54.623Z,3224
2017-08-20T13:52:56.031Z,2748
2017-08-20T13:53:57.530Z,2692
2017-08-20T13:54:58.944Z,2728
2017-08-20T13:56:00.352Z,2636
2017-08-20T13:57:01.851Z,2776
2017-08-20T13:58:03.258Z,2432
2017-08-20T13:59:04.670Z,1464
2017-08-20T14:00:06.172Z,1284
2017-08-20T14:01:07.580Z,980
2017-08-20T14:02:09.056Z,816
2017-08-20T14:03:10.469Z,864
2017-08-20T14:04:11.935Z,916
2017-08-20T14:05:13.345Z,956